Terminal Aerodrome Forecast
Issued by NWS Burlington, VT

Home | Current Version | Previous Version | Text Only | Print | Product List | Glossary On
Versions: 1 2 3 4 5 6 7 8 9 10 11 12 13
990
FTUS41 KBTV 221127 CCA
TAFBTV
TAF COR
KBTV 221127Z 2212/2312 19012KT P6SM FEW120 SCT200
     FM221700 18013G20KT P6SM VCSH FEW050 SCT100
     FM221800 19015G25KT P6SM SHRA VCTS SCT035CB BKN050
      TEMPO 2220/2224 4SM TSRA BKN025CB
     FM230400 20010KT P6SM VCSH BKN025 BKN045=

USA.gov is the U.S. government's official web portal to all federal, state and local government web resources and services.